createdAt,value
2022-12-05T00:01:53.261Z,101393.00
2022-12-05T00:04:26.371Z,101407.00
2022-12-05T00:06:59.340Z,101398.00
2022-12-05T00:09:32.284Z,101403.00
2022-12-05T00:12:05.256Z,101408.00
2022-12-05T00:14:37.988Z,101407.00
2022-12-05T00:17:11.051Z,101399.00
2022-12-05T00:19:43.971Z,101394.00
2022-12-05T00:22:16.815Z,101396.00
2022-12-05T00:24:49.748Z,101382.00
2022-12-05T00:27:22.688Z,101386.00
2022-12-05T00:29:56.088Z,101385.00
2022-12-05T00:32:29.623Z,101386.00
2022-12-05T00:35:02.590Z,101400.00
2022-12-05T00:37:35.458Z,101390.00
2022-12-05T00:40:09.063Z,101383.00
2022-12-05T00:42:42.172Z,101387.00
2022-12-05T00:45:15.734Z,101393.00
2022-12-05T00:47:48.731Z,101393.00
2022-12-05T00:50:21.450Z,101389.00
2022-12-05T00:52:54.996Z,101389.00
2022-12-05T00:55:28.356Z,101387.00
2022-12-05T00:58:01.368Z,101390.00
2022-12-05T01:00:34.360Z,101387.00
2022-12-05T01:03:07.470Z,101396.00
2022-12-05T01:05:40.570Z,101396.00
2022-12-05T01:08:13.732Z,101393.00
2022-12-05T01:10:47.891Z,101391.00
2022-12-05T01:13:20.907Z,101395.00
2022-12-05T01:15:53.935Z,101390.00
2022-12-05T01:18:27.390Z,101398.00
2022-12-05T01:21:00.261Z,101394.00
2022-12-05T01:23:33.270Z,101388.00
2022-12-05T01:26:08.601Z,101381.00
2022-12-05T01:28:42.229Z,101387.00
2022-12-05T01:31:29.247Z,101368.00
2022-12-05T01:34:04.069Z,101370.00
2022-12-05T01:36:37.118Z,101367.00
2022-12-05T01:39:10.085Z,101359.00
2022-12-05T01:41:44.721Z,101360.00
2022-12-05T01:44:19.977Z,101358.00
2022-12-05T01:46:54.234Z,101348.00
2022-12-05T01:49:41.419Z,101346.00
2022-12-05T01:52:19.321Z,101344.00
2022-12-05T01:54:54.389Z,101345.00
2022-12-05T01:57:29.260Z,101339.00
2022-12-05T02:00:04.010Z,101339.00
2022-12-05T02:02:37.132Z,101331.00
2022-12-05T02:05:12.466Z,101333.00
2022-12-05T02:07:46.332Z,101333.00
2022-12-05T02:10:19.412Z,101331.00
2022-12-05T02:12:53.643Z,101318.00
2022-12-05T02:15:34.480Z,101326.00
2022-12-05T02:18:30.241Z,101316.00
2022-12-05T02:21:39.695Z,101318.00
2022-12-05T02:24:48.133Z,101316.00
2022-12-05T02:27:51.429Z,101310.00
2022-12-05T02:30:28.596Z,101319.00
2022-12-05T02:33:26.313Z,101314.00
2022-12-05T02:36:09.957Z,101310.00
2022-12-05T02:38:44.864Z,101309.00
2022-12-05T02:41:22.448Z,101305.00
2022-12-05T02:44:15.704Z,101323.00
2022-12-05T02:46:50.779Z,101314.00
2022-12-05T02:49:25.790Z,101303.00
2022-12-05T02:52:00.479Z,101306.00
2022-12-05T02:54:35.553Z,101295.00
2022-12-05T02:57:09.767Z,101294.00
2022-12-05T02:59:42.563Z,101291.00
2022-12-05T03:02:26.735Z,101294.00
2022-12-05T03:05:01.467Z,101293.00
2022-12-05T03:07:36.187Z,101285.00
2022-12-05T03:10:11.192Z,101275.00
2022-12-05T03:12:45.961Z,101273.00
2022-12-05T03:15:20.840Z,101279.00
2022-12-05T03:18:05.662Z,101290.00
2022-12-05T03:20:40.326Z,101286.00
2022-12-05T03:23:18.613Z,101272.00
2022-12-05T03:25:56.325Z,101281.00
2022-12-05T03:28:37.267Z,101290.00
2022-12-05T03:31:12.400Z,101278.00
2022-12-05T03:33:47.650Z,101277.00
2022-12-05T03:36:22.653Z,101278.00
2022-12-05T03:39:03.339Z,101261.00
2022-12-05T03:41:47.095Z,101269.00
2022-12-05T03:44:40.653Z,101262.00
2022-12-05T03:47:15.457Z,101264.00
2022-12-05T03:49:53.065Z,101256.00
2022-12-05T03:53:18.143Z,101250.00
2022-12-05T03:55:27.843Z,101253.00
2022-12-05T03:58:03.255Z,101248.00
2022-12-05T04:00:38.194Z,101237.00
2022-12-05T04:03:27.780Z,101239.00
2022-12-05T04:06:03.097Z,101238.00
2022-12-05T04:08:37.793Z,101245.00
2022-12-05T04:11:15.584Z,101233.00
2022-12-05T04:13:55.895Z,101230.00
2022-12-05T04:16:47.950Z,101231.00
2022-12-05T04:19:28.712Z,101226.00
2022-12-05T04:22:02.023Z,101221.00
2022-12-05T04:24:53.372Z,101222.00
2022-12-05T04:27:37.431Z,101220.00
2022-12-05T04:30:18.287Z,101222.00
2022-12-05T04:33:08.372Z,101227.00
2022-12-05T04:35:43.172Z,101217.00
2022-12-05T04:38:21.111Z,101218.00
2022-12-05T04:41:04.932Z,101217.00
2022-12-05T04:43:39.997Z,101224.00
2022-12-05T04:46:15.377Z,101211.00
2022-12-05T04:48:50.539Z,101212.00
2022-12-05T04:51:31.824Z,101221.00
2022-12-05T04:54:21.697Z,101215.00
2022-12-05T04:57:01.023Z,101208.00
2022-12-05T04:59:30.974Z,101210.00
2022-12-05T05:02:05.883Z,101200.00
2022-12-05T05:04:44.029Z,101210.00
2022-12-05T05:07:18.445Z,101214.00
2022-12-05T05:09:51.685Z,101209.00
2022-12-05T05:12:24.710Z,101204.00
2022-12-05T05:14:57.654Z,101212.00
2022-12-05T05:17:30.577Z,101219.00
2022-12-05T05:20:21.022Z,101209.00
2022-12-05T05:22:54.560Z,101215.00
2022-12-05T05:25:27.764Z,101221.00
2022-12-05T05:28:00.928Z,101229.00
2022-12-05T05:30:33.938Z,101218.00
2022-12-05T05:33:06.829Z,101218.00
2022-12-05T05:35:40.808Z,101217.00
2022-12-05T05:38:13.724Z,101225.00
2022-12-05T05:40:46.845Z,101220.00
2022-12-05T05:43:19.940Z,101223.00
2022-12-05T05:45:52.641Z,101232.00
2022-12-05T05:48:25.598Z,101229.00
2022-12-05T05:50:58.699Z,101232.00
2022-12-05T05:53:31.675Z,101231.00
2022-12-05T05:56:09.648Z,101229.00
2022-12-05T05:58:43.483Z,101226.00
2022-12-05T06:01:18.480Z,101231.00
2022-12-05T06:03:52.520Z,101233.00
2022-12-05T06:06:26.039Z,101241.00
2022-12-05T06:08:59.065Z,101242.00
2022-12-05T06:11:32.662Z,101237.00
2022-12-05T06:14:05.978Z,101243.00
2022-12-05T06:16:38.948Z,101239.00
2022-12-05T06:19:14.315Z,101244.00
2022-12-05T06:21:45.991Z,101246.00
2022-12-05T06:24:18.833Z,101249.00
2022-12-05T06:26:51.896Z,101250.00
2022-12-05T06:29:26.788Z,101245.00
2022-12-05T06:31:59.012Z,101251.00
2022-12-05T06:34:32.189Z,101256.00
2022-12-05T06:37:05.930Z,101268.00
2022-12-05T06:39:39.067Z,101258.00
2022-12-05T06:42:11.918Z,101266.00
2022-12-05T06:44:44.942Z,101264.00
2022-12-05T06:47:17.842Z,101268.00
2022-12-05T06:49:50.896Z,101273.00
2022-12-05T06:52:23.863Z,101270.00
2022-12-05T06:54:57.176Z,101269.00
2022-12-05T06:57:31.558Z,101281.00
2022-12-05T07:00:22.565Z,101275.00
2022-12-05T07:02:58.206Z,101276.00
2022-12-05T07:05:31.297Z,101279.00
2022-12-05T07:08:04.236Z,101272.00
2022-12-05T07:10:37.214Z,101272.00
2022-12-05T07:13:13.054Z,101267.00
2022-12-05T07:15:44.447Z,101269.00
2022-12-05T07:18:17.595Z,101264.00
2022-12-05T07:21:11.364Z,101261.00
2022-12-05T07:23:25.919Z,101265.00
2022-12-05T07:25:59.692Z,101271.00
2022-12-05T07:28:33.613Z,101275.00
2022-12-05T07:31:07.874Z,101279.00
2022-12-05T07:33:40.972Z,101283.00
2022-12-05T07:36:16.688Z,101279.00
2022-12-05T07:38:49.683Z,101280.00
2022-12-05T07:41:27.532Z,101291.00
2022-12-05T07:44:01.812Z,101292.00
2022-12-05T07:46:34.666Z,101291.00
2022-12-05T07:49:07.710Z,101283.00
2022-12-05T07:51:40.770Z,101288.00
2022-12-05T07:54:13.697Z,101285.00
2022-12-05T07:56:48.151Z,101299.00
2022-12-05T07:59:20.891Z,101291.00
2022-12-05T08:01:53.924Z,101291.00
2022-12-05T08:04:28.343Z,101291.00
2022-12-05T08:07:01.432Z,101294.00
2022-12-05T08:09:34.443Z,101297.00
2022-12-05T08:12:07.573Z,101295.00
2022-12-05T08:14:40.725Z,101297.00
2022-12-05T08:17:13.809Z,101310.00
2022-12-05T08:19:46.937Z,101309.00
2022-12-05T08:22:20.422Z,101313.00
2022-12-05T08:24:56.412Z,101312.00
2022-12-05T08:27:28.135Z,101328.00
2022-12-05T08:30:01.213Z,101326.00
2022-12-05T08:32:34.155Z,101333.00
2022-12-05T08:35:07.281Z,101338.00
2022-12-05T08:37:43.009Z,101343.00
2022-12-05T08:40:16.598Z,101348.00
2022-12-05T08:42:49.819Z,101346.00
2022-12-05T08:45:22.787Z,101346.00
2022-12-05T08:47:55.600Z,101349.00
2022-12-05T08:50:28.748Z,101351.00
2022-12-05T08:53:01.707Z,101351.00
2022-12-05T08:55:34.681Z,101356.00
2022-12-05T08:58:07.687Z,101358.00
2022-12-05T09:00:40.788Z,101355.00
2022-12-05T09:03:15.192Z,101360.00
2022-12-05T09:05:49.496Z,101358.00
2022-12-05T09:08:22.595Z,101365.00
2022-12-05T09:10:55.542Z,101365.00
2022-12-05T09:13:28.572Z,101373.00
2022-12-05T09:16:01.641Z,101377.00
2022-12-05T09:18:34.746Z,101374.00
2022-12-05T09:21:18.836Z,101377.00
2022-12-05T09:23:51.981Z,101379.00
2022-12-05T09:26:27.950Z,101377.00
2022-12-05T09:29:03.241Z,101370.00
2022-12-05T09:31:36.618Z,101363.00
2022-12-05T09:34:09.699Z,101351.00
2022-12-05T09:36:42.656Z,101358.00
2022-12-05T09:39:16.141Z,101355.00
2022-12-05T09:42:23.321Z,101355.00
2022-12-05T09:45:23.256Z,101363.00
2022-12-05T09:48:07.499Z,101363.00
2022-12-05T09:51:00.226Z,101363.00
2022-12-05T09:53:43.864Z,101355.00
2022-12-05T09:56:34.329Z,101360.00
2022-12-05T09:59:08.115Z,101370.00
2022-12-05T10:02:00.725Z,101366.00
2022-12-05T10:05:01.193Z,101370.00
2022-12-05T10:07:57.683Z,101363.00
2022-12-05T10:10:38.226Z,101365.00
2022-12-05T10:13:25.190Z,101363.00
2022-12-05T10:16:06.441Z,101350.00
2022-12-05T10:18:47.344Z,101357.00
2022-12-05T10:21:37.332Z,101344.00
2022-12-05T10:24:12.623Z,101346.00
2022-12-05T10:26:53.453Z,101342.00
2022-12-05T10:29:37.282Z,101343.00
2022-12-05T10:32:24.437Z,101336.00
2022-12-05T10:34:58.774Z,101344.00
2022-12-05T10:37:32.871Z,101335.00
2022-12-05T10:40:05.798Z,101329.00
2022-12-05T10:42:39.609Z,101347.00
2022-12-05T10:45:14.880Z,101342.00
2022-12-05T10:47:48.119Z,101337.00
2022-12-05T10:50:34.776Z,101335.00
2022-12-05T10:53:09.953Z,101332.00
2022-12-05T10:56:06.504Z,101325.00
2022-12-05T10:58:26.567Z,101334.00
2022-12-05T11:01:04.513Z,101333.00
2022-12-05T11:03:42.616Z,101319.00
2022-12-05T11:06:24.058Z,101320.00
2022-12-05T11:09:06.298Z,101332.00
2022-12-05T11:11:35.642Z,101332.00
2022-12-05T11:14:28.608Z,101329.00
2022-12-05T11:17:02.990Z,101318.00
2022-12-05T11:19:42.883Z,101306.00
2022-12-05T11:22:17.989Z,101313.00
2022-12-05T11:24:50.815Z,101306.00
2022-12-05T11:27:26.000Z,101313.00
2022-12-05T11:30:06.721Z,101310.00
2022-12-05T11:32:39.529Z,101310.00
2022-12-05T11:35:22.994Z,101312.00
2022-12-05T11:38:09.400Z,101303.00
2022-12-05T11:41:05.012Z,101292.00
2022-12-05T11:44:01.792Z,101291.00
2022-12-05T11:46:39.638Z,101281.00
2022-12-05T11:49:31.028Z,101278.00
2022-12-05T11:52:23.852Z,101279.00
2022-12-05T11:55:17.273Z,101273.00
2022-12-05T11:57:58.118Z,101271.00
2022-12-05T12:00:39.652Z,101271.00
2022-12-05T12:03:33.616Z,101277.00
2022-12-05T12:06:23.601Z,101279.00
2022-12-05T12:09:10.870Z,101271.00
2022-12-05T12:11:48.552Z,101272.00
2022-12-05T12:14:32.448Z,101276.00
2022-12-05T12:17:26.397Z,101265.00
2022-12-05T12:20:22.470Z,101270.00
2022-12-05T12:23:03.499Z,101263.00
2022-12-05T12:25:41.394Z,101261.00
2022-12-05T12:28:22.153Z,101262.00
2022-12-05T12:31:12.521Z,101258.00
2022-12-05T12:34:09.709Z,101250.00
2022-12-05T12:36:47.703Z,101243.00
2022-12-05T12:39:42.123Z,101248.00
2022-12-05T12:42:20.024Z,101245.00
2022-12-05T12:45:20.303Z,101237.00
2022-12-05T12:48:10.587Z,101233.00
2022-12-05T12:50:48.451Z,101232.00
2022-12-05T12:53:41.379Z,101230.00
2022-12-05T12:56:38.602Z,101238.00
2022-12-05T12:59:22.358Z,101238.00
2022-12-05T13:02:03.162Z,101241.00
2022-12-05T13:04:39.227Z,101230.00
2022-12-05T13:07:23.643Z,101222.00
2022-12-05T13:10:01.970Z,101217.00
2022-12-05T13:12:37.041Z,101218.00
2022-12-05T13:15:24.524Z,101218.00
2022-12-05T13:17:58.315Z,101212.00
2022-12-05T13:20:33.663Z,101218.00
2022-12-05T13:23:09.215Z,101219.00
2022-12-05T13:25:43.237Z,101208.00
2022-12-05T13:28:36.535Z,101204.00
2022-12-05T13:31:09.758Z,101204.00
2022-12-05T13:33:50.574Z,101209.00
2022-12-05T13:36:46.702Z,101210.00
2022-12-05T13:39:41.515Z,101205.00
2022-12-05T13:42:19.292Z,101200.00
2022-12-05T13:45:09.437Z,101201.00
2022-12-05T13:48:05.567Z,101191.00
2022-12-05T13:50:50.459Z,101184.00
2022-12-05T13:53:31.826Z,101177.00
2022-12-05T13:56:19.098Z,101172.00
2022-12-05T13:59:00.073Z,101160.00
2022-12-05T14:01:40.818Z,101164.00
2022-12-05T14:04:12.207Z,101161.00
2022-12-05T14:06:53.409Z,101148.00
2022-12-05T14:09:34.385Z,101157.00
2022-12-05T14:12:18.556Z,101154.00
2022-12-05T14:15:05.954Z,101155.00
2022-12-05T14:17:46.256Z,101149.00
2022-12-05T14:20:21.909Z,101144.00
2022-12-05T14:23:02.982Z,101146.00
2022-12-05T14:25:57.931Z,101132.00
2022-12-05T14:28:45.320Z,101134.00
2022-12-05T14:31:29.301Z,101139.00
2022-12-05T14:34:13.313Z,101136.00
2022-12-05T14:37:00.245Z,101131.00
2022-12-05T14:39:37.806Z,101138.00
2022-12-05T14:42:17.155Z,101145.00
2022-12-05T14:44:55.161Z,101140.00
2022-12-05T14:47:35.813Z,101141.00
2022-12-05T14:50:40.402Z,101143.00
2022-12-05T14:53:39.355Z,101132.00
2022-12-05T14:56:19.915Z,101130.00
2022-12-05T14:59:07.346Z,101128.00
2022-12-05T15:01:50.801Z,101137.00
2022-12-05T15:04:43.791Z,101136.00
2022-12-05T15:07:24.927Z,101134.00
2022-12-05T15:10:09.086Z,101143.00
2022-12-05T15:12:55.891Z,101147.00
2022-12-05T15:15:43.301Z,101127.00
2022-12-05T15:18:33.191Z,101123.00
2022-12-05T15:21:32.623Z,101119.00
2022-12-05T15:24:07.959Z,101118.00
2022-12-05T15:26:47.445Z,101111.00
2022-12-05T15:29:31.029Z,101114.00
2022-12-05T15:32:08.899Z,101114.00
2022-12-05T15:34:58.942Z,101112.00
2022-12-05T15:37:40.371Z,101102.00
2022-12-05T15:40:16.260Z,101110.00
2022-12-05T15:42:51.529Z,101105.00
2022-12-05T15:45:26.826Z,101095.00
2022-12-05T15:48:02.049Z,101104.00
2022-12-05T15:50:49.397Z,101102.00
2022-12-05T15:53:32.594Z,101106.00
2022-12-05T15:56:07.700Z,101101.00
2022-12-05T15:58:42.829Z,101113.00
2022-12-05T16:01:23.174Z,101115.00
2022-12-05T16:04:00.820Z,101113.00
2022-12-05T16:06:38.528Z,101116.00
2022-12-05T16:09:13.864Z,101119.00
2022-12-05T16:11:58.138Z,101123.00
2022-12-05T16:17:11.116Z,101121.00
2022-12-05T16:19:43.997Z,101127.00
2022-12-05T16:22:27.607Z,101132.00
2022-12-05T16:25:05.683Z,101139.00
2022-12-05T16:27:41.223Z,101134.00
2022-12-05T16:30:18.754Z,101134.00
2022-12-05T16:32:53.408Z,101134.00
2022-12-05T16:35:37.999Z,101140.00
2022-12-05T16:38:24.636Z,101142.00
2022-12-05T16:40:59.381Z,101137.00
2022-12-05T16:43:34.531Z,101121.00
2022-12-05T16:46:18.562Z,101118.00
2022-12-05T16:48:53.150Z,101106.00
2022-12-05T16:51:28.254Z,101118.00
2022-12-05T16:54:01.812Z,101121.00
2022-12-05T16:56:38.137Z,101107.00
2022-12-05T16:59:12.849Z,101103.00
2022-12-05T17:01:45.695Z,101105.00
2022-12-05T17:04:18.586Z,101107.00
2022-12-05T17:06:51.644Z,101104.00
2022-12-05T17:09:25.295Z,101102.00
2022-12-05T17:12:00.517Z,101109.00
2022-12-05T17:14:33.405Z,101086.00
2022-12-05T17:17:07.451Z,101081.00
2022-12-05T17:19:40.295Z,101077.00
2022-12-05T17:22:14.083Z,101073.00
2022-12-05T17:24:47.071Z,101070.00
2022-12-05T17:27:20.051Z,101074.00
2022-12-05T17:29:56.449Z,101077.00
2022-12-05T17:32:29.639Z,101078.00
2022-12-05T17:35:06.580Z,101082.00
2022-12-05T17:37:36.649Z,101069.00
2022-12-05T17:40:13.703Z,101071.00
2022-12-05T17:42:46.665Z,101059.00
2022-12-05T17:45:20.785Z,101059.00
2022-12-05T17:47:53.796Z,101052.00
2022-12-05T17:50:27.433Z,101062.00
2022-12-05T17:53:05.882Z,101054.00
2022-12-05T17:55:35.061Z,101066.00
2022-12-05T17:58:08.092Z,101070.00
2022-12-05T18:00:40.879Z,101069.00
2022-12-05T18:03:18.648Z,101082.00
2022-12-05T18:05:52.180Z,101081.00
2022-12-05T18:08:25.956Z,101077.00
2022-12-05T18:11:00.174Z,101074.00
2022-12-05T18:13:33.046Z,101083.00
2022-12-05T18:16:06.095Z,101069.00
2022-12-05T18:18:39.200Z,101076.00
2022-12-05T18:21:14.193Z,101079.00
2022-12-05T18:23:47.096Z,101072.00
2022-12-05T18:26:20.026Z,101079.00
2022-12-05T18:28:53.552Z,101074.00
2022-12-05T18:31:26.493Z,101069.00
2022-12-05T18:33:59.494Z,101069.00
2022-12-05T18:36:32.517Z,101046.00
2022-12-05T18:39:05.406Z,101058.00
2022-12-05T18:41:38.354Z,101054.00
2022-12-05T18:44:11.876Z,101063.00
2022-12-05T18:46:44.762Z,101057.00
2022-12-05T18:49:17.480Z,101066.00
2022-12-05T18:51:50.540Z,101060.00
2022-12-05T18:54:23.518Z,101071.00
2022-12-05T18:56:56.689Z,101068.00
2022-12-05T18:59:30.590Z,101069.00
2022-12-05T19:02:03.679Z,101071.00
2022-12-05T19:04:37.085Z,101062.00
2022-12-05T19:07:10.116Z,101073.00
2022-12-05T19:09:43.035Z,101075.00
2022-12-05T19:12:16.377Z,101081.00
2022-12-05T19:14:50.156Z,101086.00
2022-12-05T19:17:23.866Z,101091.00
2022-12-05T19:19:57.934Z,101095.00
2022-12-05T19:22:35.351Z,101092.00
2022-12-05T19:25:08.594Z,101092.00
2022-12-05T19:27:41.852Z,101095.00
2022-12-05T19:30:15.366Z,101090.00
2022-12-05T19:32:48.598Z,101088.00
2022-12-05T19:35:21.999Z,101094.00
2022-12-05T19:37:54.986Z,101086.00
2022-12-05T19:40:27.990Z,101105.00
2022-12-05T19:43:01.517Z,101095.00
2022-12-05T19:45:34.537Z,101099.00
2022-12-05T19:48:07.808Z,101084.00
2022-12-05T19:50:43.305Z,101076.00
2022-12-05T19:53:20.593Z,101057.00
2022-12-05T19:55:53.529Z,101061.00
2022-12-05T19:58:26.412Z,101070.00
2022-12-05T20:01:00.062Z,101081.00
2022-12-05T20:03:33.297Z,101088.00
2022-12-05T20:06:06.601Z,101094.00
2022-12-05T20:08:40.397Z,101093.00
2022-12-05T20:11:15.563Z,101095.00
2022-12-05T20:13:49.074Z,101112.00
2022-12-05T20:16:23.925Z,101115.00
2022-12-05T20:18:57.820Z,101122.00
2022-12-05T20:21:31.798Z,101128.00
2022-12-05T20:24:05.758Z,101127.00
2022-12-05T20:26:40.570Z,101121.00
2022-12-05T20:29:13.747Z,101120.00
2022-12-05T20:31:50.083Z,101105.00
2022-12-05T20:34:22.923Z,101096.00
2022-12-05T20:36:56.032Z,101093.00
2022-12-05T20:39:29.990Z,101081.00
2022-12-05T20:42:03.114Z,101083.00
2022-12-05T20:44:37.363Z,101080.00
2022-12-05T20:47:10.561Z,101081.00
2022-12-05T20:49:43.956Z,101070.00
2022-12-05T20:52:17.505Z,101081.00
2022-12-05T20:54:50.543Z,101081.00
2022-12-05T20:57:23.324Z,101079.00
2022-12-05T20:59:56.140Z,101070.00
2022-12-05T21:02:29.177Z,101077.00
2022-12-05T21:05:05.440Z,101078.00
2022-12-05T21:07:38.800Z,101069.00
2022-12-05T21:10:12.557Z,101070.00
2022-12-05T21:12:45.969Z,101060.00
2022-12-05T21:15:19.208Z,101070.00
2022-12-05T21:17:56.632Z,101065.00
2022-12-05T21:20:29.697Z,101060.00
2022-12-05T21:23:02.688Z,101058.00
2022-12-05T21:25:35.958Z,101050.00
2022-12-05T21:28:09.060Z,101047.00
2022-12-05T21:30:42.116Z,101065.00
2022-12-05T21:33:15.042Z,101051.00
2022-12-05T21:35:49.245Z,101043.00
2022-12-05T21:38:22.309Z,101040.00
2022-12-05T21:40:55.356Z,101036.00
2022-12-05T21:43:28.293Z,101036.00
2022-12-05T21:46:01.251Z,101037.00
2022-12-05T21:48:34.681Z,101021.00
2022-12-05T21:51:11.414Z,101028.00
2022-12-05T21:53:44.481Z,101039.00
2022-12-05T21:56:19.303Z,101034.00
2022-12-05T21:58:52.221Z,101028.00
2022-12-05T22:01:30.293Z,101026.00
2022-12-05T22:04:03.593Z,101011.00
2022-12-05T22:06:36.918Z,101010.00
2022-12-05T22:09:09.890Z,101003.00
2022-12-05T22:11:42.756Z,100992.00
2022-12-05T22:14:15.663Z,100988.00
2022-12-05T22:16:49.158Z,100992.00
2022-12-05T22:19:22.187Z,100993.00
2022-12-05T22:21:55.554Z,100988.00
2022-12-05T22:24:28.355Z,100991.00
2022-12-05T22:27:01.192Z,100992.00
2022-12-05T22:29:34.245Z,100984.00
2022-12-05T22:32:07.163Z,100982.00
2022-12-05T22:34:39.979Z,100971.00
2022-12-05T22:37:13.068Z,100973.00
2022-12-05T22:39:46.367Z,100969.00
2022-12-05T22:42:19.280Z,100970.00
2022-12-05T22:44:52.096Z,100971.00
2022-12-05T22:47:25.253Z,100949.00
2022-12-05T22:49:58.420Z,100953.00
2022-12-05T22:52:31.673Z,100944.00
2022-12-05T22:55:04.680Z,100935.00
2022-12-05T22:57:37.638Z,100932.00
2022-12-05T23:00:12.147Z,100933.00
2022-12-05T23:02:45.124Z,100918.00
2022-12-05T23:05:18.142Z,100916.00
2022-12-05T23:07:51.139Z,100926.00
2022-12-05T23:10:24.265Z,100928.00
2022-12-05T23:12:57.235Z,100918.00
2022-12-05T23:15:30.934Z,100916.00
2022-12-05T23:18:04.000Z,100915.00
2022-12-05T23:20:37.403Z,100901.00
2022-12-05T23:23:10.330Z,100900.00
2022-12-05T23:25:43.293Z,100903.00
2022-12-05T23:28:16.295Z,100905.00
2022-12-05T23:30:49.505Z,100904.00
2022-12-05T23:33:22.492Z,100889.00
2022-12-05T23:35:57.188Z,100891.00
2022-12-05T23:38:30.344Z,100900.00
2022-12-05T23:41:07.899Z,100896.00
2022-12-05T23:43:40.995Z,100899.00
2022-12-05T23:46:14.910Z,100893.00
2022-12-05T23:48:48.291Z,100896.00
2022-12-05T23:51:23.040Z,100898.00
2022-12-05T23:54:06.388Z,100895.00
2022-12-05T23:56:40.552Z,100894.00
2022-12-05T23:59:13.795Z,100895.00
